createdAt,value
2023-05-06T00:00:08.582Z,16.10
2023-05-06T00:02:54.300Z,16.20
2023-05-06T00:05:22.192Z,16.20
2023-05-06T00:07:49.940Z,16.20
2023-05-06T00:10:17.903Z,16.20
2023-05-06T00:12:45.890Z,16.20
2023-05-06T00:15:13.614Z,16.30
2023-05-06T00:17:41.374Z,16.30
2023-05-06T00:20:11.210Z,16.40
2023-05-06T00:22:39.036Z,16.40
2023-05-06T00:25:07.568Z,16.40
2023-05-06T00:27:35.477Z,16.50
2023-05-06T00:30:04.260Z,16.50
2023-05-06T00:32:32.478Z,16.50
2023-05-06T00:35:00.463Z,16.50
2023-05-06T00:37:29.734Z,16.50
2023-05-06T00:39:57.700Z,16.50
2023-05-06T00:42:25.492Z,16.50
2023-05-06T00:44:53.550Z,16.50
2023-05-06T00:47:23.579Z,16.60
2023-05-06T00:49:51.680Z,16.60
2023-05-06T00:52:20.773Z,16.60
2023-05-06T00:54:50.437Z,16.60
2023-05-06T00:57:18.833Z,16.60
2023-05-06T00:59:47.344Z,16.60
2023-05-06T01:02:16.451Z,16.50
2023-05-06T01:04:44.367Z,16.50
2023-05-06T01:07:24.480Z,16.50
2023-05-06T01:09:58.142Z,16.40
2023-05-06T01:12:33.258Z,16.30
2023-05-06T01:15:08.840Z,16.30
2023-05-06T01:17:40.802Z,16.30
2023-05-06T01:20:13.284Z,16.30
2023-05-06T01:22:42.124Z,16.30
2023-05-06T01:25:19.954Z,16.30
2023-05-06T01:27:49.174Z,16.20
2023-05-06T01:30:19.015Z,16.20
2023-05-06T01:33:08.885Z,16.10
2023-05-06T01:35:50.509Z,16.10
2023-05-06T01:38:28.696Z,16.10
2023-05-06T01:40:59.480Z,16.10
2023-05-06T01:43:30.884Z,16.10
2023-05-06T01:46:01.366Z,16.00
2023-05-06T01:48:34.522Z,16.00
2023-05-06T01:51:04.100Z,15.90
2023-05-06T01:53:33.161Z,15.80
2023-05-06T01:56:03.181Z,15.80
2023-05-06T01:58:31.805Z,15.80
2023-05-06T02:01:00.194Z,15.70
2023-05-06T02:03:30.868Z,15.70
2023-05-06T02:05:59.459Z,15.70
2023-05-06T02:08:34.654Z,15.70
2023-05-06T02:11:05.200Z,15.60
2023-05-06T02:13:33.388Z,15.60
2023-05-06T02:16:02.190Z,15.50
2023-05-06T02:18:30.243Z,15.50
2023-05-06T02:20:58.692Z,15.50
2023-05-06T02:23:26.528Z,15.40
2023-05-06T02:25:54.387Z,15.30
2023-05-06T02:28:23.448Z,15.30
2023-05-06T02:30:55.768Z,15.30
2023-05-06T02:33:23.638Z,15.20
2023-05-06T02:35:51.923Z,15.20
2023-05-06T02:38:20.041Z,15.20
2023-05-06T02:40:47.853Z,15.10
2023-05-06T02:43:16.724Z,15.10
2023-05-06T02:45:45.931Z,15.10
2023-05-06T02:48:13.703Z,15.10
2023-05-06T02:50:42.143Z,15.10
2023-05-06T02:53:10.438Z,15.10
2023-05-06T02:55:38.190Z,15.10
2023-05-06T02:58:05.988Z,15.20
2023-05-06T03:00:34.932Z,15.20
2023-05-06T03:03:06.297Z,15.20
2023-05-06T03:05:34.043Z,15.20
2023-05-06T03:08:02.356Z,15.20
2023-05-06T03:10:30.676Z,15.30
2023-05-06T03:12:59.546Z,15.30
2023-05-06T03:15:28.909Z,15.30
2023-05-06T03:17:57.429Z,15.30
2023-05-06T03:20:28.697Z,15.30
2023-05-06T03:22:57.882Z,15.40
2023-05-06T03:25:26.117Z,15.40
2023-05-06T03:27:54.580Z,15.40
2023-05-06T03:30:24.037Z,15.40
2023-05-06T03:32:57.670Z,15.50
2023-05-06T03:35:32.294Z,15.50
2023-05-06T03:38:02.107Z,15.50
2023-05-06T03:40:39.069Z,15.40
2023-05-06T03:43:07.715Z,15.30
2023-05-06T03:45:35.822Z,15.40
2023-05-06T03:48:05.620Z,15.50
2023-05-06T03:50:39.341Z,15.60
2023-05-06T03:53:07.329Z,15.60
2023-05-06T03:55:37.173Z,15.70
2023-05-06T03:58:05.187Z,15.70
2023-05-06T04:00:34.055Z,15.70
2023-05-06T04:03:02.274Z,15.80
2023-05-06T04:05:38.458Z,15.80
2023-05-06T04:08:08.339Z,15.80
2023-05-06T04:10:40.860Z,15.80
2023-05-06T04:13:17.900Z,15.70
2023-05-06T04:15:46.644Z,15.70
2023-05-06T04:18:20.159Z,15.70
2023-05-06T04:21:00.878Z,15.80
2023-05-06T04:23:31.301Z,15.60
2023-05-06T04:26:00.116Z,15.70
2023-05-06T04:28:30.673Z,15.40
2023-05-06T04:30:58.743Z,15.50
2023-05-06T04:33:36.163Z,15.50
2023-05-06T04:36:10.527Z,15.50
2023-05-06T04:38:42.822Z,15.50
2023-05-06T04:41:11.939Z,15.30
2023-05-06T04:43:39.897Z,15.40
2023-05-06T04:46:14.442Z,15.40
2023-05-06T04:48:44.560Z,15.10
2023-05-06T04:51:15.816Z,14.90
2023-05-06T04:53:43.781Z,15.00
2023-05-06T04:56:12.183Z,14.80
2023-05-06T04:58:42.720Z,14.80
2023-05-06T05:01:11.335Z,14.90
2023-05-06T05:03:39.809Z,15.00
2023-05-06T05:06:11.370Z,15.00
2023-05-06T05:08:40.792Z,15.00
2023-05-06T05:11:10.281Z,15.20
2023-05-06T05:13:38.841Z,15.40
2023-05-06T05:16:09.883Z,15.60
2023-05-06T05:18:42.477Z,15.70
2023-05-06T05:21:18.241Z,15.70
2023-05-06T05:23:47.560Z,15.60
2023-05-06T05:26:18.284Z,15.60
2023-05-06T05:28:48.354Z,15.80
2023-05-06T05:31:16.490Z,15.80
2023-05-06T05:33:45.712Z,16.00
2023-05-06T05:36:17.026Z,16.10
2023-05-06T05:38:49.111Z,16.10
2023-05-06T05:41:18.446Z,16.20
2023-05-06T05:43:46.972Z,16.30
2023-05-06T05:46:16.722Z,16.30
2023-05-06T05:48:46.221Z,16.40
2023-05-06T05:51:15.088Z,16.40
2023-05-06T05:53:44.070Z,16.50
2023-05-06T05:56:14.017Z,16.70
2023-05-06T05:58:42.606Z,16.80
2023-05-06T06:01:10.803Z,16.60
2023-05-06T06:03:39.584Z,16.40
2023-05-06T06:06:07.877Z,16.90
2023-05-06T06:08:35.823Z,17.20
2023-05-06T06:11:05.762Z,17.30
2023-05-06T06:13:40.090Z,17.90
2023-05-06T06:16:09.000Z,18.30
2023-05-06T06:18:37.210Z,18.70
2023-05-06T06:21:06.332Z,18.90
2023-05-06T06:23:36.340Z,19.70
2023-05-06T06:26:07.318Z,19.90
2023-05-06T06:28:36.979Z,19.80
2023-05-06T06:31:06.113Z,20.30
2023-05-06T06:33:34.046Z,20.80
2023-05-06T06:36:01.936Z,21.30
2023-05-06T06:38:31.242Z,21.70
2023-05-06T06:40:59.053Z,22.50
2023-05-06T06:43:26.754Z,23.10
2023-05-06T06:45:57.741Z,23.50
2023-05-06T06:48:26.871Z,23.80
2023-05-06T06:50:55.869Z,24.50
2023-05-06T06:53:23.622Z,25.30
2023-05-06T06:55:52.570Z,26.00
2023-05-06T06:58:22.213Z,26.70
2023-05-06T07:00:51.677Z,26.30
2023-05-06T07:03:19.868Z,27.40
2023-05-06T07:05:50.100Z,28.60
2023-05-06T07:08:21.253Z,28.80
2023-05-06T07:10:49.047Z,29.80
2023-05-06T07:13:16.892Z,30.20
2023-05-06T07:15:44.687Z,30.60
2023-05-06T07:18:13.546Z,30.80
2023-05-06T07:20:43.729Z,31.10
2023-05-06T07:23:14.069Z,31.50
2023-05-06T07:25:41.785Z,31.90
2023-05-06T07:28:09.544Z,32.10
2023-05-06T07:30:39.247Z,32.60
2023-05-06T07:33:07.806Z,32.70
2023-05-06T07:35:35.851Z,32.80
2023-05-06T07:38:03.960Z,33.10
2023-05-06T07:40:33.084Z,33.60
2023-05-06T07:43:00.846Z,34.20
2023-05-06T07:45:28.598Z,34.70
2023-05-06T07:47:56.745Z,34.70
2023-05-06T07:50:24.524Z,33.90
2023-05-06T07:52:52.241Z,33.20
2023-05-06T07:55:20.032Z,31.40
2023-05-06T07:57:50.150Z,30.60
2023-05-06T08:00:18.960Z,29.80
2023-05-06T08:02:49.763Z,29.00
2023-05-06T08:05:18.849Z,28.70
2023-05-06T08:07:47.274Z,29.00
2023-05-06T08:10:15.025Z,30.10
2023-05-06T08:12:42.840Z,31.50
2023-05-06T08:15:12.739Z,32.60
2023-05-06T08:17:40.771Z,33.30
2023-05-06T08:20:09.590Z,33.80
2023-05-06T08:22:37.314Z,34.50
2023-05-06T08:25:05.288Z,35.10
2023-05-06T08:27:33.120Z,34.80
2023-05-06T08:30:00.919Z,35.10
2023-05-06T08:32:30.123Z,34.80
2023-05-06T08:34:59.630Z,34.70
2023-05-06T08:37:27.502Z,35.40
2023-05-06T08:39:55.499Z,35.50
2023-05-06T08:42:24.088Z,35.90
2023-05-06T08:44:52.731Z,36.10
2023-05-06T08:47:21.421Z,36.40
2023-05-06T08:49:51.868Z,36.40
2023-05-06T08:52:21.272Z,36.70
2023-05-06T08:54:51.720Z,36.90
2023-05-06T08:57:20.086Z,37.40
2023-05-06T08:59:50.448Z,37.60
2023-05-06T09:02:19.389Z,35.50
2023-05-06T09:04:47.808Z,33.50
2023-05-06T09:07:17.065Z,32.80
2023-05-06T09:09:45.470Z,33.50
2023-05-06T09:12:13.943Z,34.40
2023-05-06T09:14:42.252Z,35.10
2023-05-06T09:17:23.547Z,35.80
2023-05-06T09:19:53.143Z,36.40
2023-05-06T09:22:24.020Z,36.80
2023-05-06T09:24:56.511Z,36.60
2023-05-06T09:27:25.335Z,33.00
2023-05-06T09:30:02.357Z,32.50
2023-05-06T09:32:30.487Z,33.80
2023-05-06T09:35:00.288Z,35.40
2023-05-06T09:37:30.245Z,36.40
2023-05-06T09:40:01.363Z,36.60
2023-05-06T09:42:30.408Z,35.30
2023-05-06T09:45:01.532Z,36.00
2023-05-06T09:47:35.104Z,35.70
2023-05-06T09:50:05.550Z,35.90
2023-05-06T09:52:34.811Z,36.10
2023-05-06T09:55:04.349Z,37.10
2023-05-06T09:57:33.264Z,37.80
2023-05-06T10:00:03.152Z,37.90
2023-05-06T10:02:56.124Z,37.50
2023-05-06T10:05:25.103Z,38.50
2023-05-06T10:07:54.238Z,38.20
2023-05-06T10:10:25.412Z,38.60
2023-05-06T10:12:55.342Z,39.00
2023-05-06T10:15:27.638Z,38.60
2023-05-06T10:17:57.118Z,38.40
2023-05-06T10:20:29.078Z,38.00
2023-05-06T10:23:04.618Z,37.80
2023-05-06T10:25:37.571Z,37.40
2023-05-06T10:28:09.664Z,37.00
2023-05-06T10:30:45.176Z,37.50
2023-05-06T10:33:16.621Z,38.50
2023-05-06T10:35:50.778Z,38.70
2023-05-06T10:38:24.137Z,38.80
2023-05-06T10:40:53.233Z,38.90
2023-05-06T10:43:23.794Z,38.60
2023-05-06T10:46:08.949Z,38.10
2023-05-06T10:48:39.890Z,38.60
2023-05-06T10:51:24.966Z,38.50
2023-05-06T10:54:03.701Z,38.50
2023-05-06T10:56:33.297Z,38.50
2023-05-06T10:59:07.947Z,38.30
2023-05-06T11:01:36.672Z,38.50
2023-05-06T11:04:09.477Z,38.50
2023-05-06T11:06:41.065Z,38.30
2023-05-06T11:09:20.380Z,37.90
2023-05-06T11:12:02.295Z,37.90
2023-05-06T11:14:32.112Z,38.10
2023-05-06T11:17:01.760Z,37.60
2023-05-06T11:19:32.846Z,37.60
2023-05-06T11:22:02.266Z,37.60
2023-05-06T11:24:31.269Z,37.80
2023-05-06T11:27:00.469Z,37.90
2023-05-06T11:29:28.528Z,38.00
2023-05-06T11:31:56.499Z,37.90
2023-05-06T11:34:27.189Z,37.60
2023-05-06T11:37:02.113Z,37.10
2023-05-06T11:39:33.223Z,37.10
2023-05-06T11:42:04.972Z,36.40
2023-05-06T11:44:35.199Z,35.80
2023-05-06T11:47:05.828Z,35.90
2023-05-06T11:49:37.895Z,35.70
2023-05-06T11:52:08.652Z,35.80
2023-05-06T11:54:39.600Z,35.50
2023-05-06T11:57:08.038Z,35.70
2023-05-06T11:59:38.053Z,35.50
2023-05-06T12:02:07.447Z,35.00
2023-05-06T12:04:39.881Z,35.30
2023-05-06T12:07:16.116Z,35.80
2023-05-06T12:09:45.780Z,36.00
2023-05-06T12:12:19.494Z,36.40
2023-05-06T12:14:49.182Z,36.00
2023-05-06T12:17:17.618Z,35.60
2023-05-06T12:19:47.215Z,35.00
2023-05-06T12:22:17.945Z,34.60
2023-05-06T12:24:45.998Z,34.70
2023-05-06T12:27:14.176Z,34.50
2023-05-06T12:29:52.093Z,34.10
2023-05-06T12:32:19.766Z,33.50
2023-05-06T12:34:47.650Z,32.40
2023-05-06T12:37:28.413Z,31.30
2023-05-06T12:39:59.200Z,30.50
2023-05-06T12:42:27.969Z,30.10
2023-05-06T12:44:58.070Z,29.50
2023-05-06T12:47:27.132Z,28.40
2023-05-06T12:49:58.511Z,27.70
2023-05-06T12:52:30.588Z,27.90
2023-05-06T12:54:58.467Z,27.50
2023-05-06T12:57:26.234Z,27.30
2023-05-06T12:59:56.438Z,27.30
2023-05-06T13:02:24.602Z,27.50
2023-05-06T13:04:52.833Z,27.30
2023-05-06T13:07:22.125Z,27.20
2023-05-06T13:09:51.220Z,27.00
2023-05-06T13:12:18.902Z,27.10
2023-05-06T13:14:46.645Z,27.00
2023-05-06T13:17:14.725Z,26.70
2023-05-06T13:19:42.558Z,26.60
2023-05-06T13:22:10.459Z,26.70
2023-05-06T13:24:38.224Z,26.60
2023-05-06T13:27:07.428Z,26.70
2023-05-06T13:29:35.246Z,26.90
2023-05-06T13:32:05.148Z,27.00
2023-05-06T13:34:34.208Z,26.80
2023-05-06T13:37:01.945Z,26.70
2023-05-06T13:39:29.637Z,26.70
2023-05-06T13:41:57.328Z,26.80
2023-05-06T13:44:26.557Z,26.80
2023-05-06T13:46:54.420Z,27.00
2023-05-06T13:49:22.215Z,26.90
2023-05-06T13:51:49.992Z,26.90
2023-05-06T13:54:17.746Z,26.70
2023-05-06T13:56:45.427Z,26.70
2023-05-06T13:59:13.986Z,26.70
2023-05-06T14:01:43.731Z,26.70
2023-05-06T14:04:12.226Z,26.60
2023-05-06T14:06:40.448Z,26.60
2023-05-06T14:09:08.248Z,26.50
2023-05-06T14:11:36.076Z,26.50
2023-05-06T14:14:04.270Z,26.60
2023-05-06T14:16:32.294Z,26.50
2023-05-06T14:19:03.531Z,26.40
2023-05-06T14:21:34.620Z,26.10
2023-05-06T14:24:06.897Z,26.10
2023-05-06T14:26:37.255Z,26.10
2023-05-06T14:29:05.059Z,26.20
2023-05-06T14:31:34.359Z,26.30
2023-05-06T14:34:03.757Z,26.20
2023-05-06T14:36:32.109Z,26.10
2023-05-06T14:39:00.129Z,26.20
2023-05-06T14:41:27.829Z,26.10
2023-05-06T14:43:55.581Z,26.00
2023-05-06T14:46:23.686Z,25.90
2023-05-06T14:48:51.624Z,26.10
2023-05-06T14:51:20.721Z,26.00
2023-05-06T14:53:51.287Z,26.00
2023-05-06T14:56:19.953Z,26.00
2023-05-06T14:58:48.913Z,25.80
2023-05-06T15:01:17.920Z,26.00
2023-05-06T15:03:47.221Z,26.00
2023-05-06T15:06:16.273Z,26.10
2023-05-06T15:08:48.794Z,25.60
2023-05-06T15:11:18.476Z,25.50
2023-05-06T15:13:48.840Z,25.50
2023-05-06T15:16:16.888Z,25.70
2023-05-06T15:18:45.366Z,25.70
2023-05-06T15:21:14.245Z,25.70
2023-05-06T15:23:42.744Z,25.60
2023-05-06T15:26:12.797Z,25.60
2023-05-06T15:28:40.996Z,25.70
2023-05-06T15:31:09.161Z,25.60
2023-05-06T15:33:36.943Z,25.60
2023-05-06T15:36:05.259Z,25.50
2023-05-06T15:38:59.788Z,25.40
2023-05-06T15:41:32.645Z,25.50
2023-05-06T15:44:01.582Z,25.50
2023-05-06T15:46:30.784Z,25.50
2023-05-06T15:49:21.090Z,25.50
2023-05-06T15:51:46.862Z,25.50
2023-05-06T15:54:18.158Z,25.50
2023-05-06T15:56:48.406Z,25.60
2023-05-06T15:59:16.502Z,25.60
2023-05-06T16:02:16.553Z,25.40
2023-05-06T16:04:38.823Z,25.30
2023-05-06T16:07:09.947Z,25.20
2023-05-06T16:09:39.024Z,25.20
2023-05-06T16:12:08.602Z,25.10
2023-05-06T16:14:37.070Z,25.00
2023-05-06T16:17:05.068Z,24.90
2023-05-06T16:19:36.575Z,24.90
2023-05-06T16:22:05.046Z,24.90
2023-05-06T16:24:33.442Z,24.90
2023-05-06T16:27:02.001Z,24.90
2023-05-06T16:29:31.449Z,25.00
2023-05-06T16:31:59.288Z,25.10
2023-05-06T16:34:27.421Z,25.00
2023-05-06T16:36:56.393Z,24.90
2023-05-06T16:39:24.212Z,25.00
2023-05-06T16:41:52.131Z,25.00
2023-05-06T16:44:20.273Z,25.00
2023-05-06T16:46:52.188Z,25.00
2023-05-06T16:49:22.134Z,25.00
2023-05-06T16:51:50.109Z,24.70
2023-05-06T16:54:19.114Z,24.70
2023-05-06T16:56:52.233Z,24.70
2023-05-06T16:59:22.588Z,24.60
2023-05-06T17:01:56.865Z,24.40
2023-05-06T17:04:26.934Z,24.40
2023-05-06T17:06:58.124Z,24.30
2023-05-06T17:09:26.902Z,24.20
2023-05-06T17:11:55.156Z,24.10
2023-05-06T17:14:26.591Z,24.10
2023-05-06T17:17:00.399Z,24.10
2023-05-06T17:19:28.615Z,24.10
2023-05-06T17:22:08.121Z,24.10
2023-05-06T17:24:38.755Z,24.00
2023-05-06T17:27:06.681Z,24.00
2023-05-06T17:29:34.609Z,24.00
2023-05-06T17:32:04.771Z,23.80
2023-05-06T17:34:33.832Z,23.80
2023-05-06T17:37:04.496Z,23.70
2023-05-06T17:39:34.035Z,23.60
2023-05-06T17:42:04.305Z,23.50
2023-05-06T17:44:38.369Z,23.50
2023-05-06T17:47:09.293Z,23.50
2023-05-06T17:49:38.066Z,23.30
2023-05-06T17:52:07.331Z,23.20
2023-05-06T17:54:36.422Z,23.20
2023-05-06T17:57:04.413Z,23.10
2023-05-06T17:59:34.409Z,23.00
2023-05-06T18:02:02.767Z,22.90
2023-05-06T18:04:32.332Z,22.80
2023-05-06T18:07:02.518Z,22.60
2023-05-06T18:09:32.606Z,22.50
2023-05-06T18:12:01.571Z,22.40
2023-05-06T18:14:30.461Z,22.30
2023-05-06T18:16:58.935Z,22.00
2023-05-06T18:19:27.556Z,22.00
2023-05-06T18:21:56.937Z,21.90
2023-05-06T18:24:26.846Z,21.80
2023-05-06T18:26:54.843Z,21.70
2023-05-06T18:29:23.657Z,21.60
2023-05-06T18:31:51.499Z,21.40
2023-05-06T18:34:19.426Z,21.20
2023-05-06T18:36:47.547Z,21.10
2023-05-06T18:39:17.437Z,20.80
2023-05-06T18:41:45.966Z,20.80
2023-05-06T18:44:13.742Z,20.70
2023-05-06T18:46:41.581Z,20.60
2023-05-06T18:49:09.335Z,20.50
2023-05-06T18:51:37.250Z,20.50
2023-05-06T18:54:04.980Z,20.40
2023-05-06T18:56:34.102Z,20.30
2023-05-06T18:59:03.558Z,20.10
2023-05-06T19:01:31.696Z,20.00
2023-05-06T19:04:00.617Z,19.80
2023-05-06T19:06:28.843Z,19.50
2023-05-06T19:09:01.192Z,19.40
2023-05-06T19:11:28.946Z,19.40
2023-05-06T19:13:57.997Z,19.30
2023-05-06T19:16:25.916Z,19.30
2023-05-06T19:18:53.718Z,19.20
2023-05-06T19:21:21.703Z,19.20
2023-05-06T19:23:51.056Z,19.10
2023-05-06T19:26:18.785Z,19.00
2023-05-06T19:28:46.491Z,18.90
2023-05-06T19:31:15.675Z,18.90
2023-05-06T19:33:44.053Z,18.70
2023-05-06T19:36:11.768Z,18.70
2023-05-06T19:38:39.550Z,18.70
2023-05-06T19:41:08.360Z,18.70
2023-05-06T19:43:42.672Z,18.50
2023-05-06T19:46:12.487Z,18.50
2023-05-06T19:48:42.505Z,18.40
2023-05-06T19:51:10.229Z,18.40
2023-05-06T19:53:40.162Z,18.40
2023-05-06T19:56:11.093Z,18.40
2023-05-06T19:58:39.088Z,18.30
2023-05-06T20:01:07.228Z,18.20
2023-05-06T20:03:36.546Z,18.20
2023-05-06T20:06:05.835Z,18.10
2023-05-06T20:08:33.555Z,18.10
2023-05-06T20:11:01.637Z,18.00
2023-05-06T20:13:29.586Z,18.00
2023-05-06T20:15:57.613Z,17.90
2023-05-06T20:18:25.815Z,17.90
2023-05-06T20:20:53.599Z,17.80
2023-05-06T20:23:22.733Z,17.80
2023-05-06T20:25:50.540Z,17.70
2023-05-06T20:28:19.113Z,17.60
2023-05-06T20:30:46.918Z,17.60
2023-05-06T20:33:14.696Z,17.40
2023-05-06T20:35:42.609Z,17.40
2023-05-06T20:38:10.837Z,17.40
2023-05-06T20:40:39.848Z,17.30
2023-05-06T20:43:07.535Z,17.30
2023-05-06T20:45:35.941Z,17.20
2023-05-06T20:48:04.503Z,17.20
2023-05-06T20:50:32.267Z,17.10
2023-05-06T20:53:01.463Z,17.10
2023-05-06T20:55:29.363Z,17.10
2023-05-06T20:58:00.583Z,17.00
2023-05-06T21:00:28.404Z,17.00
2023-05-06T21:02:56.400Z,17.00
2023-05-06T21:05:24.293Z,17.00
2023-05-06T21:07:52.745Z,16.90
2023-05-06T21:10:20.540Z,16.80
2023-05-06T21:12:48.925Z,16.70
2023-05-06T21:15:19.246Z,16.50
2023-05-06T21:17:47.187Z,16.50
2023-05-06T21:20:17.419Z,16.40
2023-05-06T21:22:45.152Z,16.40
2023-05-06T21:25:13.791Z,16.30
2023-05-06T21:27:41.620Z,16.30
2023-05-06T21:30:10.303Z,16.30
2023-05-06T21:32:39.462Z,16.30
2023-05-06T21:35:07.885Z,16.20
2023-05-06T21:37:36.445Z,16.20
2023-05-06T21:40:04.751Z,16.20
2023-05-06T21:42:32.546Z,16.10
2023-05-06T21:45:00.745Z,16.10
2023-05-06T21:47:28.496Z,16.00
2023-05-06T21:49:57.855Z,16.00
2023-05-06T21:52:25.789Z,16.00
2023-05-06T21:54:54.648Z,16.00
2023-05-06T21:57:22.397Z,15.90
2023-05-06T21:59:50.220Z,15.70
2023-05-06T22:02:17.949Z,15.60
2023-05-06T22:04:45.753Z,15.60
2023-05-06T22:07:14.758Z,15.60
2023-05-06T22:09:42.472Z,15.50
2023-05-06T22:12:11.581Z,15.50
2023-05-06T22:14:41.623Z,15.40
2023-05-06T22:17:12.182Z,15.40
2023-05-06T22:19:40.753Z,15.30
2023-05-06T22:22:09.026Z,15.20
2023-05-06T22:24:38.086Z,15.20
2023-05-06T22:27:05.846Z,15.20
2023-05-06T22:29:34.848Z,15.20
2023-05-06T22:32:04.132Z,15.20
2023-05-06T22:34:32.083Z,15.10
2023-05-06T22:37:00.838Z,15.20
2023-05-06T22:39:29.744Z,15.10
2023-05-06T22:41:58.779Z,15.10
2023-05-06T22:44:26.454Z,15.00
2023-05-06T22:46:54.765Z,14.90
2023-05-06T22:49:23.361Z,14.90
2023-05-06T22:51:51.124Z,14.80
2023-05-06T22:54:18.807Z,14.80
2023-05-06T22:56:46.566Z,14.70
2023-05-06T22:59:15.619Z,14.70
2023-05-06T23:01:43.553Z,14.60
2023-05-06T23:04:11.487Z,14.60
2023-05-06T23:06:39.932Z,14.60
2023-05-06T23:09:07.866Z,14.50
2023-05-06T23:11:35.706Z,14.50
2023-05-06T23:14:07.507Z,14.50
2023-05-06T23:16:37.394Z,14.40
2023-05-06T23:19:07.776Z,14.40
2023-05-06T23:21:35.560Z,14.40
2023-05-06T23:24:03.325Z,14.30
2023-05-06T23:26:31.235Z,14.30
2023-05-06T23:28:58.951Z,14.30
2023-05-06T23:31:26.789Z,14.30
2023-05-06T23:33:55.923Z,14.30
2023-05-06T23:36:23.645Z,14.30
2023-05-06T23:38:51.349Z,14.30
2023-05-06T23:41:21.473Z,14.30
2023-05-06T23:43:50.074Z,14.40
2023-05-06T23:46:17.901Z,14.30
2023-05-06T23:48:45.652Z,14.20
2023-05-06T23:51:14.842Z,14.20
2023-05-06T23:53:43.754Z,14.20
2023-05-06T23:56:11.495Z,14.20
2023-05-06T23:58:39.500Z,14.10
